sensor_id;sensor_type;location;lat;lon;timestamp;temperature;humidity
29765;DHT22;16667;-33.884;151.182;2022-08-21T00:00:41;14.10;99.90
29765;DHT22;16667;-33.884;151.182;2022-08-21T00:03:12;14.10;99.90
29765;DHT22;16667;-33.884;151.182;2022-08-21T00:05:45;14.00;99.90
29765;DHT22;16667;-33.884;151.182;2022-08-21T00:08:17;14.00;99.90
29765;DHT22;16667;-33.884;151.182;2022-08-21T00:10:51;14.10;99.90
29765;DHT22;16667;-33.884;151.182;2022-08-21T00:13:22;14.10;99.90
29765;DHT22;16667;-33.884;151.182;2022-08-21T00:15:52;14.10;99.90
29765;DHT22;16667;-33.884;151.182;2022-08-21T00:18:23;14.10;99.90
29765;DHT22;16667;-33.884;151.182;2022-08-21T00:20:54;14.10;99.90
29765;DHT22;16667;-33.884;151.182;2022-08-21T00:23:25;14.20;99.90
29765;DHT22;16667;-33.884;151.182;2022-08-21T00:25:58;14.20;99.90
29765;DHT22;16667;-33.884;151.182;2022-08-21T00:28:29;14.30;99.90
29765;DHT22;16667;-33.884;151.182;2022-08-21T00:31:00;14.40;99.90
29765;DHT22;16667;-33.884;151.182;2022-08-21T00:33:31;14.40;99.90
29765;DHT22;16667;-33.884;151.182;2022-08-21T00:36:02;14.40;99.90
29765;DHT22;16667;-33.884;151.182;2022-08-21T00:38:33;14.40;99.90
29765;DHT22;16667;-33.884;151.182;2022-08-21T00:41:09;14.50;99.90
29765;DHT22;16667;-33.884;151.182;2022-08-21T00:43:41;14.50;99.90
29765;DHT22;16667;-33.884;151.182;2022-08-21T00:46:11;14.50;99.90
29765;DHT22;16667;-33.884;151.182;2022-08-21T00:48:42;14.50;99.90
29765;DHT22;16667;-33.884;151.182;2022-08-21T00:51:15;14.60;99.90
29765;DHT22;16667;-33.884;151.182;2022-08-21T00:53:53;14.80;99.90
29765;DHT22;16667;-33.884;151.182;2022-08-21T00:56:26;15.00;99.90
29765;DHT22;16667;-33.884;151.182;2022-08-21T00:58:59;15.10;99.90
29765;DHT22;16667;-33.884;151.182;2022-08-21T01:01:31;15.00;99.90
29765;DHT22;16667;-33.884;151.182;2022-08-21T01:04:03;15.00;99.90
29765;DHT22;16667;-33.884;151.182;2022-08-21T01:06:33;15.10;99.90
29765;DHT22;16667;-33.884;151.182;2022-08-21T01:09:04;15.00;99.90
29765;DHT22;16667;-33.884;151.182;2022-08-21T01:11:37;14.90;99.90
29765;DHT22;16667;-33.884;151.182;2022-08-21T01:14:12;15.00;99.90
29765;DHT22;16667;-33.884;151.182;2022-08-21T01:16:45;15.00;99.90
29765;DHT22;16667;-33.884;151.182;2022-08-21T01:19:17;15.20;99.90
29765;DHT22;16667;-33.884;151.182;2022-08-21T01:21:51;15.30;99.90
29765;DHT22;16667;-33.884;151.182;2022-08-21T01:24:22;15.50;99.90
29765;DHT22;16667;-33.884;151.182;2022-08-21T01:26:53;15.50;99.90
29765;DHT22;16667;-33.884;151.182;2022-08-21T01:29:32;15.50;99.90
29765;DHT22;16667;-33.884;151.182;2022-08-21T01:32:06;15.50;99.90
29765;DHT22;16667;-33.884;151.182;2022-08-21T01:34:39;15.50;99.90
29765;DHT22;16667;-33.884;151.182;2022-08-21T01:37:12;15.60;99.90
29765;DHT22;16667;-33.884;151.182;2022-08-21T01:39:44;15.50;99.90
29765;DHT22;16667;-33.884;151.182;2022-08-21T01:42:16;15.60;99.90
29765;DHT22;16667;-33.884;151.182;2022-08-21T01:44:46;15.60;99.90
29765;DHT22;16667;-33.884;151.182;2022-08-21T01:47:18;15.60;99.90
29765;DHT22;16667;-33.884;151.182;2022-08-21T01:49:49;15.60;99.90
29765;DHT22;16667;-33.884;151.182;2022-08-21T01:52:22;15.70;99.90
29765;DHT22;16667;-33.884;151.182;2022-08-21T01:54:53;15.90;99.90
29765;DHT22;16667;-33.884;151.182;2022-08-21T01:57:24;16.00;99.90
29765;DHT22;16667;-33.884;151.182;2022-08-21T01:59:55;16.00;99.90
29765;DHT22;16667;-33.884;151.182;2022-08-21T02:02:26;16.00;99.90
29765;DHT22;16667;-33.884;151.182;2022-08-21T02:04:56;16.10;99.90
29765;DHT22;16667;-33.884;151.182;2022-08-21T02:07:36;16.20;99.90
29765;DHT22;16667;-33.884;151.182;2022-08-21T02:10:09;16.30;99.90
29765;DHT22;16667;-33.884;151.182;2022-08-21T02:12:41;16.30;99.90
29765;DHT22;16667;-33.884;151.182;2022-08-21T02:15:12;16.40;99.90
29765;DHT22;16667;-33.884;151.182;2022-08-21T02:17:44;16.40;99.90
29765;DHT22;16667;-33.884;151.182;2022-08-21T02:20:19;16.50;99.90
29765;DHT22;16667;-33.884;151.182;2022-08-21T02:22:52;16.60;99.90
29765;DHT22;16667;-33.884;151.182;2022-08-21T02:25:24;16.60;99.90
29765;DHT22;16667;-33.884;151.182;2022-08-21T02:27:56;16.80;99.90
29765;DHT22;16667;-33.884;151.182;2022-08-21T02:30:29;16.70;99.90
29765;DHT22;16667;-33.884;151.182;2022-08-21T02:33:00;16.80;99.90
29765;DHT22;16667;-33.884;151.182;2022-08-21T02:35:32;16.90;99.90
29765;DHT22;16667;-33.884;151.182;2022-08-21T02:38:06;16.90;99.90
29765;DHT22;16667;-33.884;151.182;2022-08-21T02:40:39;17.00;99.90
29765;DHT22;16667;-33.884;151.182;2022-08-21T02:43:10;17.10;99.90
29765;DHT22;16667;-33.884;151.182;2022-08-21T02:45:44;17.10;99.90
29765;DHT22;16667;-33.884;151.182;2022-08-21T02:48:17;17.20;99.90
29765;DHT22;16667;-33.884;151.182;2022-08-21T02:50:52;17.10;99.90
29765;DHT22;16667;-33.884;151.182;2022-08-21T02:53:25;17.10;99.90
29765;DHT22;16667;-33.884;151.182;2022-08-21T02:55:58;17.30;99.90
29765;DHT22;16667;-33.884;151.182;2022-08-21T02:58:34;17.30;99.90
29765;DHT22;16667;-33.884;151.182;2022-08-21T03:01:06;17.30;99.90
29765;DHT22;16667;-33.884;151.182;2022-08-21T03:03:38;17.20;99.90
29765;DHT22;16667;-33.884;151.182;2022-08-21T03:06:09;17.30;99.90
29765;DHT22;16667;-33.884;151.182;2022-08-21T03:08:43;17.20;99.90
29765;DHT22;16667;-33.884;151.182;2022-08-21T03:11:15;17.20;99.90
29765;DHT22;16667;-33.884;151.182;2022-08-21T03:13:46;17.40;99.90
29765;DHT22;16667;-33.884;151.182;2022-08-21T03:16:17;17.40;99.90
29765;DHT22;16667;-33.884;151.182;2022-08-21T03:18:48;17.50;99.90
29765;DHT22;16667;-33.884;151.182;2022-08-21T03:21:19;17.80;99.90
29765;DHT22;16667;-33.884;151.182;2022-08-21T03:23:52;17.90;99.90
29765;DHT22;16667;-33.884;151.182;2022-08-21T03:26:22;17.60;99.90
29765;DHT22;16667;-33.884;151.182;2022-08-21T03:28:53;17.70;99.90
29765;DHT22;16667;-33.884;151.182;2022-08-21T03:31:25;18.10;99.90
29765;DHT22;16667;-33.884;151.182;2022-08-21T03:33:58;18.30;99.90
29765;DHT22;16667;-33.884;151.182;2022-08-21T03:36:29;18.20;99.90
29765;DHT22;16667;-33.884;151.182;2022-08-21T03:39:02;18.50;99.90
29765;DHT22;16667;-33.884;151.182;2022-08-21T03:41:33;18.80;99.90
29765;DHT22;16667;-33.884;151.182;2022-08-21T03:44:04;18.60;99.90
29765;DHT22;16667;-33.884;151.182;2022-08-21T03:46:36;18.30;99.00
29765;DHT22;16667;-33.884;151.182;2022-08-21T03:49:08;18.50;99.90
29765;DHT22;16667;-33.884;151.182;2022-08-21T03:51:38;19.10;99.90
29765;DHT22;16667;-33.884;151.182;2022-08-21T03:54:14;19.40;99.90
29765;DHT22;16667;-33.884;151.182;2022-08-21T03:56:45;19.50;98.70
29765;DHT22;16667;-33.884;151.182;2022-08-21T03:59:15;19.50;99.90
29765;DHT22;16667;-33.884;151.182;2022-08-21T04:01:53;19.20;96.50
29765;DHT22;16667;-33.884;151.182;2022-08-21T04:04:24;19.10;98.70
29765;DHT22;16667;-33.884;151.182;2022-08-21T04:06:55;19.30;99.00
29765;DHT22;16667;-33.884;151.182;2022-08-21T04:09:28;19.30;99.90
29765;DHT22;16667;-33.884;151.182;2022-08-21T04:12:00;19.40;98.40
29765;DHT22;16667;-33.884;151.182;2022-08-21T04:14:31;19.50;95.40
29765;DHT22;16667;-33.884;151.182;2022-08-21T04:17:02;19.50;95.20
29765;DHT22;16667;-33.884;151.182;2022-08-21T04:19:33;19.60;95.50
29765;DHT22;16667;-33.884;151.182;2022-08-21T04:22:06;19.70;94.60
29765;DHT22;16667;-33.884;151.182;2022-08-21T04:24:38;19.80;99.30
29765;DHT22;16667;-33.884;151.182;2022-08-21T04:27:09;19.80;94.50
29765;DHT22;16667;-33.884;151.182;2022-08-21T04:29:43;19.80;92.40
29765;DHT22;16667;-33.884;151.182;2022-08-21T04:32:13;19.90;92.40
29765;DHT22;16667;-33.884;151.182;2022-08-21T04:34:56;20.20;94.20
29765;DHT22;16667;-33.884;151.182;2022-08-21T04:37:27;20.40;91.00
29765;DHT22;16667;-33.884;151.182;2022-08-21T04:40:00;21.10;90.90
29765;DHT22;16667;-33.884;151.182;2022-08-21T04:42:30;21.40;85.00
29765;DHT22;16667;-33.884;151.182;2022-08-21T04:45:01;21.70;87.10
29765;DHT22;16667;-33.884;151.182;2022-08-21T04:47:32;22.00;88.20
29765;DHT22;16667;-33.884;151.182;2022-08-21T04:50:03;21.90;90.10
29765;DHT22;16667;-33.884;151.182;2022-08-21T04:52:34;22.20;93.30
29765;DHT22;16667;-33.884;151.182;2022-08-21T04:55:07;22.40;97.10
29765;DHT22;16667;-33.884;151.182;2022-08-21T04:57:38;22.30;97.60
29765;DHT22;16667;-33.884;151.182;2022-08-21T05:00:11;22.00;99.20
29765;DHT22;16667;-33.884;151.182;2022-08-21T05:02:42;21.90;99.80
29765;DHT22;16667;-33.884;151.182;2022-08-21T05:05:15;22.10;99.90
29765;DHT22;16667;-33.884;151.182;2022-08-21T05:07:46;22.40;99.90
29765;DHT22;16667;-33.884;151.182;2022-08-21T05:10:19;22.20;99.90
29765;DHT22;16667;-33.884;151.182;2022-08-21T05:12:50;22.70;99.70
29765;DHT22;16667;-33.884;151.182;2022-08-21T05:15:21;23.00;99.90
29765;DHT22;16667;-33.884;151.182;2022-08-21T05:17:52;23.10;98.20
29765;DHT22;16667;-33.884;151.182;2022-08-21T05:20:23;22.90;99.90
29765;DHT22;16667;-33.884;151.182;2022-08-21T05:22:54;23.00;99.90
29765;DHT22;16667;-33.884;151.182;2022-08-21T05:25:27;23.60;99.90
29765;DHT22;16667;-33.884;151.182;2022-08-21T05:27:58;23.90;98.70
29765;DHT22;16667;-33.884;151.182;2022-08-21T05:30:29;24.60;97.10
29765;DHT22;16667;-33.884;151.182;2022-08-21T05:33:01;25.30;96.80
29765;DHT22;16667;-33.884;151.182;2022-08-21T05:35:32;26.60;93.30
29765;DHT22;16667;-33.884;151.182;2022-08-21T05:38:04;26.80;92.50
29765;DHT22;16667;-33.884;151.182;2022-08-21T05:40:36;27.10;91.70
29765;DHT22;16667;-33.884;151.182;2022-08-21T05:43:07;27.30;91.70
29765;DHT22;16667;-33.884;151.182;2022-08-21T05:45:38;27.80;90.60
29765;DHT22;16667;-33.884;151.182;2022-08-21T05:48:09;28.10;86.60
29765;DHT22;16667;-33.884;151.182;2022-08-21T05:50:45;27.40;87.70
29765;DHT22;16667;-33.884;151.182;2022-08-21T05:53:20;27.60;88.70
29765;DHT22;16667;-33.884;151.182;2022-08-21T05:55:53;27.60;86.30
29765;DHT22;16667;-33.884;151.182;2022-08-21T05:58:24;27.50;85.60
29765;DHT22;16667;-33.884;151.182;2022-08-21T06:00:55;27.50;87.50
29765;DHT22;16667;-33.884;151.182;2022-08-21T06:03:27;27.30;87.20
29765;DHT22;16667;-33.884;151.182;2022-08-21T06:05:58;25.90;87.70
29765;DHT22;16667;-33.884;151.182;2022-08-21T06:08:29;24.00;92.00
29765;DHT22;16667;-33.884;151.182;2022-08-21T06:11:03;23.10;94.60
29765;DHT22;16667;-33.884;151.182;2022-08-21T06:13:34;22.50;97.80
29765;DHT22;16667;-33.884;151.182;2022-08-21T06:16:07;22.20;99.90
29765;DHT22;16667;-33.884;151.182;2022-08-21T06:18:41;22.60;98.80
29765;DHT22;16667;-33.884;151.182;2022-08-21T06:21:12;22.60;99.00
29765;DHT22;16667;-33.884;151.182;2022-08-21T06:23:43;23.00;97.20
29765;DHT22;16667;-33.884;151.182;2022-08-21T06:26:17;22.70;98.40
29765;DHT22;16667;-33.884;151.182;2022-08-21T06:28:48;21.40;99.90
29765;DHT22;16667;-33.884;151.182;2022-08-21T06:31:20;20.10;99.90
29765;DHT22;16667;-33.884;151.182;2022-08-21T06:33:52;19.20;99.90
29765;DHT22;16667;-33.884;151.182;2022-08-21T06:36:23;19.00;99.90
29765;DHT22;16667;-33.884;151.182;2022-08-21T06:38:53;18.40;99.90
29765;DHT22;16667;-33.884;151.182;2022-08-21T06:41:26;17.90;99.90
29765;DHT22;16667;-33.884;151.182;2022-08-21T06:43:58;17.50;99.90
29765;DHT22;16667;-33.884;151.182;2022-08-21T06:46:30;17.20;99.90
29765;DHT22;16667;-33.884;151.182;2022-08-21T06:49:01;17.00;99.90
29765;DHT22;16667;-33.884;151.182;2022-08-21T06:51:33;16.80;99.90
29765;DHT22;16667;-33.884;151.182;2022-08-21T06:54:04;16.70;99.90
29765;DHT22;16667;-33.884;151.182;2022-08-21T06:56:37;16.50;99.90
29765;DHT22;16667;-33.884;151.182;2022-08-21T06:59:07;16.40;99.90
29765;DHT22;16667;-33.884;151.182;2022-08-21T07:01:40;16.30;99.90
29765;DHT22;16667;-33.884;151.182;2022-08-21T07:04:11;16.20;99.90
29765;DHT22;16667;-33.884;151.182;2022-08-21T07:06:42;16.10;99.90
29765;DHT22;16667;-33.884;151.182;2022-08-21T07:09:13;16.10;99.90
29765;DHT22;16667;-33.884;151.182;2022-08-21T07:11:48;16.00;99.90
29765;DHT22;16667;-33.884;151.182;2022-08-21T07:14:20;16.00;99.90
29765;DHT22;16667;-33.884;151.182;2022-08-21T07:16:51;15.90;99.90
29765;DHT22;16667;-33.884;151.182;2022-08-21T07:19:22;15.80;99.90
29765;DHT22;16667;-33.884;151.182;2022-08-21T07:21:54;15.80;99.90
29765;DHT22;16667;-33.884;151.182;2022-08-21T07:24:28;15.70;99.90
29765;DHT22;16667;-33.884;151.182;2022-08-21T07:27:01;15.60;99.90
29765;DHT22;16667;-33.884;151.182;2022-08-21T07:29:33;15.50;99.90
29765;DHT22;16667;-33.884;151.182;2022-08-21T07:32:04;15.40;99.90
29765;DHT22;16667;-33.884;151.182;2022-08-21T07:34:34;15.40;99.90
29765;DHT22;16667;-33.884;151.182;2022-08-21T07:37:05;15.30;99.90
29765;DHT22;16667;-33.884;151.182;2022-08-21T07:39:36;15.30;99.90
29765;DHT22;16667;-33.884;151.182;2022-08-21T07:42:09;15.20;99.90
29765;DHT22;16667;-33.884;151.182;2022-08-21T07:44:40;15.20;99.90
29765;DHT22;16667;-33.884;151.182;2022-08-21T07:47:10;15.20;99.90
29765;DHT22;16667;-33.884;151.182;2022-08-21T07:49:41;15.20;99.90
29765;DHT22;16667;-33.884;151.182;2022-08-21T07:52:12;15.20;99.90
29765;DHT22;16667;-33.884;151.182;2022-08-21T07:54:43;15.10;99.90
29765;DHT22;16667;-33.884;151.182;2022-08-21T07:57:16;15.10;99.90
29765;DHT22;16667;-33.884;151.182;2022-08-21T07:59:46;15.10;99.90
29765;DHT22;16667;-33.884;151.182;2022-08-21T08:02:24;15.00;99.90
29765;DHT22;16667;-33.884;151.182;2022-08-21T08:04:54;15.00;99.90
29765;DHT22;16667;-33.884;151.182;2022-08-21T08:07:28;14.90;99.90
29765;DHT22;16667;-33.884;151.182;2022-08-21T08:10:02;14.90;99.90
29765;DHT22;16667;-33.884;151.182;2022-08-21T08:12:35;14.80;99.90
29765;DHT22;16667;-33.884;151.182;2022-08-21T08:15:08;14.80;99.90
29765;DHT22;16667;-33.884;151.182;2022-08-21T08:17:39;14.80;99.90
29765;DHT22;16667;-33.884;151.182;2022-08-21T08:20:11;14.80;99.90
29765;DHT22;16667;-33.884;151.182;2022-08-21T08:22:43;14.80;99.90
29765;DHT22;16667;-33.884;151.182;2022-08-21T08:25:15;14.70;99.90
29765;DHT22;16667;-33.884;151.182;2022-08-21T08:27:48;14.70;99.90
29765;DHT22;16667;-33.884;151.182;2022-08-21T08:30:20;14.70;99.90
29765;DHT22;16667;-33.884;151.182;2022-08-21T08:32:51;14.60;99.90
29765;DHT22;16667;-33.884;151.182;2022-08-21T08:35:22;14.60;99.90
29765;DHT22;16667;-33.884;151.182;2022-08-21T08:37:53;14.70;99.90
29765;DHT22;16667;-33.884;151.182;2022-08-21T08:40:29;14.70;99.90
29765;DHT22;16667;-33.884;151.182;2022-08-21T08:43:06;14.70;99.90
29765;DHT22;16667;-33.884;151.182;2022-08-21T08:45:39;14.70;99.90
29765;DHT22;16667;-33.884;151.182;2022-08-21T08:48:14;14.70;99.90
29765;DHT22;16667;-33.884;151.182;2022-08-21T08:50:50;14.70;99.90
29765;DHT22;16667;-33.884;151.182;2022-08-21T08:53:23;14.70;99.90
29765;DHT22;16667;-33.884;151.182;2022-08-21T08:55:56;14.60;99.90
29765;DHT22;16667;-33.884;151.182;2022-08-21T08:58:31;14.60;99.90
29765;DHT22;16667;-33.884;151.182;2022-08-21T09:01:03;14.50;99.90
29765;DHT22;16667;-33.884;151.182;2022-08-21T09:03:37;14.50;99.90
29765;DHT22;16667;-33.884;151.182;2022-08-21T09:06:17;14.50;99.90
29765;DHT22;16667;-33.884;151.182;2022-08-21T09:08:59;14.50;99.90
29765;DHT22;16667;-33.884;151.182;2022-08-21T09:11:36;14.50;99.90
29765;DHT22;16667;-33.884;151.182;2022-08-21T09:14:16;14.40;99.90
29765;DHT22;16667;-33.884;151.182;2022-08-21T09:16:58;14.50;99.90
29765;DHT22;16667;-33.884;151.182;2022-08-21T09:19:45;14.40;99.90
29765;DHT22;16667;-33.884;151.182;2022-08-21T09:22:32;14.40;99.90
29765;DHT22;16667;-33.884;151.182;2022-08-21T09:25:11;14.40;99.90
29765;DHT22;16667;-33.884;151.182;2022-08-21T09:27:43;14.40;99.90
29765;DHT22;16667;-33.884;151.182;2022-08-21T09:30:19;14.40;99.90
29765;DHT22;16667;-33.884;151.182;2022-08-21T09:32:54;14.30;99.90
29765;DHT22;16667;-33.884;151.182;2022-08-21T09:35:25;14.30;99.90
29765;DHT22;16667;-33.884;151.182;2022-08-21T09:37:58;14.30;99.90
29765;DHT22;16667;-33.884;151.182;2022-08-21T09:40:36;14.30;99.90
29765;DHT22;16667;-33.884;151.182;2022-08-21T09:43:16;14.20;99.90
29765;DHT22;16667;-33.884;151.182;2022-08-21T09:46:05;14.30;99.90
29765;DHT22;16667;-33.884;151.182;2022-08-21T09:48:46;14.20;99.90
29765;DHT22;16667;-33.884;151.182;2022-08-21T09:51:19;14.20;99.90
29765;DHT22;16667;-33.884;151.182;2022-08-21T09:53:53;14.20;99.90
29765;DHT22;16667;-33.884;151.182;2022-08-21T09:56:32;14.30;99.90
29765;DHT22;16667;-33.884;151.182;2022-08-21T09:59:24;14.20;99.90
29765;DHT22;16667;-33.884;151.182;2022-08-21T10:02:01;14.20;99.90
29765;DHT22;16667;-33.884;151.182;2022-08-21T10:04:33;14.20;99.90
29765;DHT22;16667;-33.884;151.182;2022-08-21T10:07:08;14.20;99.90
29765;DHT22;16667;-33.884;151.182;2022-08-21T10:09:40;14.20;99.90
29765;DHT22;16667;-33.884;151.182;2022-08-21T10:12:16;14.20;99.90
29765;DHT22;16667;-33.884;151.182;2022-08-21T10:14:57;14.20;99.90
29765;DHT22;16667;-33.884;151.182;2022-08-21T10:17:37;14.20;99.90
29765;DHT22;16667;-33.884;151.182;2022-08-21T10:20:14;14.10;99.90
29765;DHT22;16667;-33.884;151.182;2022-08-21T10:22:54;14.20;99.90
29765;DHT22;16667;-33.884;151.182;2022-08-21T10:25:33;14.20;99.90
29765;DHT22;16667;-33.884;151.182;2022-08-21T10:28:11;14.20;99.90
29765;DHT22;16667;-33.884;151.182;2022-08-21T10:30:49;14.20;99.90
29765;DHT22;16667;-33.884;151.182;2022-08-21T10:33:30;14.20;99.90
29765;DHT22;16667;-33.884;151.182;2022-08-21T10:36:08;14.20;99.90
29765;DHT22;16667;-33.884;151.182;2022-08-21T10:39:06;14.10;99.90
29765;DHT22;16667;-33.884;151.182;2022-08-21T10:42:00;14.10;99.90
29765;DHT22;16667;-33.884;151.182;2022-08-21T10:44:38;14.00;99.90
29765;DHT22;16667;-33.884;151.182;2022-08-21T10:47:15;14.10;99.90
29765;DHT22;16667;-33.884;151.182;2022-08-21T10:49:56;14.10;99.90
29765;DHT22;16667;-33.884;151.182;2022-08-21T10:52:41;14.10;99.90
29765;DHT22;16667;-33.884;151.182;2022-08-21T10:55:18;14.10;99.90
29765;DHT22;16667;-33.884;151.182;2022-08-21T10:57:54;14.00;99.90
29765;DHT22;16667;-33.884;151.182;2022-08-21T11:00:29;14.00;99.90
29765;DHT22;16667;-33.884;151.182;2022-08-21T11:03:05;14.00;99.90
29765;DHT22;16667;-33.884;151.182;2022-08-21T11:05:43;14.00;99.90
29765;DHT22;16667;-33.884;151.182;2022-08-21T11:08:21;14.00;99.90
29765;DHT22;16667;-33.884;151.182;2022-08-21T11:10:56;13.90;99.90
29765;DHT22;16667;-33.884;151.182;2022-08-21T11:13:31;13.90;99.90
29765;DHT22;16667;-33.884;151.182;2022-08-21T11:16:10;13.90;99.90
29765;DHT22;16667;-33.884;151.182;2022-08-21T11:18:47;13.80;99.90
29765;DHT22;16667;-33.884;151.182;2022-08-21T11:21:37;13.80;99.90
29765;DHT22;16667;-33.884;151.182;2022-08-21T11:24:22;13.70;99.90
29765;DHT22;16667;-33.884;151.182;2022-08-21T11:26:59;13.70;99.90
29765;DHT22;16667;-33.884;151.182;2022-08-21T11:29:34;13.70;99.90
29765;DHT22;16667;-33.884;151.182;2022-08-21T11:32:37;13.60;99.90
29765;DHT22;16667;-33.884;151.182;2022-08-21T11:35:22;13.60;99.90
29765;DHT22;16667;-33.884;151.182;2022-08-21T11:38:05;13.60;99.90
29765;DHT22;16667;-33.884;151.182;2022-08-21T11:41:01;13.60;99.90
29765;DHT22;16667;-33.884;151.182;2022-08-21T11:43:38;13.50;99.90
29765;DHT22;16667;-33.884;151.182;2022-08-21T11:46:29;13.50;99.90
29765;DHT22;16667;-33.884;151.182;2022-08-21T11:49:11;13.60;99.90
29765;DHT22;16667;-33.884;151.182;2022-08-21T11:52:03;13.60;99.90
29765;DHT22;16667;-33.884;151.182;2022-08-21T11:54:42;13.70;99.90
29765;DHT22;16667;-33.884;151.182;2022-08-21T11:57:18;13.70;99.90
29765;DHT22;16667;-33.884;151.182;2022-08-21T11:59:54;13.80;99.90
29765;DHT22;16667;-33.884;151.182;2022-08-21T12:02:31;13.80;99.90
29765;DHT22;16667;-33.884;151.182;2022-08-21T12:05:06;13.80;99.90
29765;DHT22;16667;-33.884;151.182;2022-08-21T12:07:43;13.90;99.90
29765;DHT22;16667;-33.884;151.182;2022-08-21T12:10:17;13.80;99.90
29765;DHT22;16667;-33.884;151.182;2022-08-21T12:12:49;13.80;99.90
29765;DHT22;16667;-33.884;151.182;2022-08-21T12:15:28;13.70;99.90
29765;DHT22;16667;-33.884;151.182;2022-08-21T12:18:00;13.70;99.90
29765;DHT22;16667;-33.884;151.182;2022-08-21T12:20:40;13.70;99.90
29765;DHT22;16667;-33.884;151.182;2022-08-21T12:23:24;13.70;99.90
29765;DHT22;16667;-33.884;151.182;2022-08-21T12:26:25;13.60;99.90
29765;DHT22;16667;-33.884;151.182;2022-08-21T12:29:22;13.60;99.90
29765;DHT22;16667;-33.884;151.182;2022-08-21T12:31:57;13.60;99.90
29765;DHT22;16667;-33.884;151.182;2022-08-21T12:34:34;13.60;99.90
29765;DHT22;16667;-33.884;151.182;2022-08-21T12:37:11;13.50;99.90
29765;DHT22;16667;-33.884;151.182;2022-08-21T12:39:46;13.40;99.90
29765;DHT22;16667;-33.884;151.182;2022-08-21T12:42:22;13.30;99.90
29765;DHT22;16667;-33.884;151.182;2022-08-21T12:44:55;13.20;99.90
29765;DHT22;16667;-33.884;151.182;2022-08-21T12:47:32;13.10;99.90
29765;DHT22;16667;-33.884;151.182;2022-08-21T12:50:08;13.10;99.90
29765;DHT22;16667;-33.884;151.182;2022-08-21T12:52:43;13.00;99.90
29765;DHT22;16667;-33.884;151.182;2022-08-21T12:55:24;13.00;99.90
29765;DHT22;16667;-33.884;151.182;2022-08-21T12:58:01;12.90;99.90
29765;DHT22;16667;-33.884;151.182;2022-08-21T13:00:35;13.00;99.90
29765;DHT22;16667;-33.884;151.182;2022-08-21T13:03:07;12.90;99.90
29765;DHT22;16667;-33.884;151.182;2022-08-21T13:05:39;12.90;99.90
29765;DHT22;16667;-33.884;151.182;2022-08-21T13:08:12;12.80;99.90
29765;DHT22;16667;-33.884;151.182;2022-08-21T13:10:47;12.80;99.90
29765;DHT22;16667;-33.884;151.182;2022-08-21T13:13:24;12.80;99.90
29765;DHT22;16667;-33.884;151.182;2022-08-21T13:15:59;12.80;99.90
29765;DHT22;16667;-33.884;151.182;2022-08-21T13:18:31;12.80;99.90
29765;DHT22;16667;-33.884;151.182;2022-08-21T13:21:11;12.60;99.90
29765;DHT22;16667;-33.884;151.182;2022-08-21T13:23:42;12.70;99.90
29765;DHT22;16667;-33.884;151.182;2022-08-21T13:26:17;12.60;99.90
29765;DHT22;16667;-33.884;151.182;2022-08-21T13:28:51;12.50;99.90
29765;DHT22;16667;-33.884;151.182;2022-08-21T13:31:26;12.40;99.90
29765;DHT22;16667;-33.884;151.182;2022-08-21T13:33:58;12.50;99.90
29765;DHT22;16667;-33.884;151.182;2022-08-21T13:36:34;12.40;99.90
29765;DHT22;16667;-33.884;151.182;2022-08-21T13:39:05;12.40;99.90
29765;DHT22;16667;-33.884;151.182;2022-08-21T13:41:39;12.30;99.90
29765;DHT22;16667;-33.884;151.182;2022-08-21T13:44:19;12.30;99.90
29765;DHT22;16667;-33.884;151.182;2022-08-21T13:46:54;12.20;99.90
29765;DHT22;16667;-33.884;151.182;2022-08-21T13:49:31;12.10;99.90
29765;DHT22;16667;-33.884;151.182;2022-08-21T13:52:12;12.10;99.90
29765;DHT22;16667;-33.884;151.182;2022-08-21T13:54:51;12.10;99.90
29765;DHT22;16667;-33.884;151.182;2022-08-21T13:57:26;12.10;99.90
29765;DHT22;16667;-33.884;151.182;2022-08-21T14:00:15;12.00;99.90
29765;DHT22;16667;-33.884;151.182;2022-08-21T14:02:47;11.90;99.90
29765;DHT22;16667;-33.884;151.182;2022-08-21T14:05:22;11.90;99.90
29765;DHT22;16667;-33.884;151.182;2022-08-21T14:08:03;11.80;99.90
29765;DHT22;16667;-33.884;151.182;2022-08-21T14:10:37;11.80;99.90
29765;DHT22;16667;-33.884;151.182;2022-08-21T14:13:32;11.80;99.90
29765;DHT22;16667;-33.884;151.182;2022-08-21T14:16:16;11.70;99.90
29765;DHT22;16667;-33.884;151.182;2022-08-21T14:18:50;11.70;99.90
29765;DHT22;16667;-33.884;151.182;2022-08-21T14:21:31;11.70;99.90
29765;DHT22;16667;-33.884;151.182;2022-08-21T14:24:05;11.60;99.90
29765;DHT22;16667;-33.884;151.182;2022-08-21T14:26:43;11.60;99.90
29765;DHT22;16667;-33.884;151.182;2022-08-21T14:29:16;11.50;99.90
29765;DHT22;16667;-33.884;151.182;2022-08-21T14:31:54;11.50;99.90
29765;DHT22;16667;-33.884;151.182;2022-08-21T14:34:27;11.40;99.90
29765;DHT22;16667;-33.884;151.182;2022-08-21T14:36:59;11.40;99.90
29765;DHT22;16667;-33.884;151.182;2022-08-21T14:39:29;11.40;99.90
29765;DHT22;16667;-33.884;151.182;2022-08-21T14:42:01;11.40;99.90
29765;DHT22;16667;-33.884;151.182;2022-08-21T14:44:32;11.30;99.90
29765;DHT22;16667;-33.884;151.182;2022-08-21T14:47:06;11.30;99.90
29765;DHT22;16667;-33.884;151.182;2022-08-21T14:49:37;11.30;99.90
29765;DHT22;16667;-33.884;151.182;2022-08-21T14:52:08;11.30;99.90
29765;DHT22;16667;-33.884;151.182;2022-08-21T14:54:39;11.20;99.90
29765;DHT22;16667;-33.884;151.182;2022-08-21T14:57:11;11.20;99.90
29765;DHT22;16667;-33.884;151.182;2022-08-21T14:59:42;11.10;99.90
29765;DHT22;16667;-33.884;151.182;2022-08-21T15:02:14;11.10;99.90
29765;DHT22;16667;-33.884;151.182;2022-08-21T15:04:48;11.10;99.90
29765;DHT22;16667;-33.884;151.182;2022-08-21T15:07:18;11.10;99.90
29765;DHT22;16667;-33.884;151.182;2022-08-21T15:09:49;11.00;99.90
29765;DHT22;16667;-33.884;151.182;2022-08-21T15:12:20;11.00;99.90
29765;DHT22;16667;-33.884;151.182;2022-08-21T15:14:52;11.00;99.90
29765;DHT22;16667;-33.884;151.182;2022-08-21T15:17:25;10.90;99.90
29765;DHT22;16667;-33.884;151.182;2022-08-21T15:19:56;10.90;99.90
29765;DHT22;16667;-33.884;151.182;2022-08-21T15:22:27;10.90;99.90
29765;DHT22;16667;-33.884;151.182;2022-08-21T15:25:07;10.90;99.90
29765;DHT22;16667;-33.884;151.182;2022-08-21T15:27:38;10.90;99.90
29765;DHT22;16667;-33.884;151.182;2022-08-21T15:30:10;10.80;99.90